createdAt,value
2024-04-21T00:00:27.207Z,78.89
2024-04-21T00:01:27.190Z,78.99
2024-04-21T00:02:27.109Z,78.99
2024-04-21T00:03:27.110Z,79.20
2024-04-21T00:04:27.121Z,79.10
2024-04-21T00:05:27.130Z,79.20
2024-04-21T00:06:27.084Z,79.20
2024-04-21T00:07:27.053Z,79.51
2024-04-21T00:08:27.045Z,79.61
2024-04-21T00:09:27.039Z,79.51
2024-04-21T00:10:27.145Z,79.72
2024-04-21T00:11:27.054Z,79.72
2024-04-21T00:12:27.017Z,79.83
2024-04-21T00:13:27.030Z,79.93
2024-04-21T00:14:26.960Z,79.93
2024-04-21T00:15:26.967Z,79.93
2024-04-21T00:16:26.993Z,80.18
2024-04-21T00:17:27.023Z,80.07
2024-04-21T00:18:26.946Z,80.28
2024-04-21T00:19:26.929Z,80.38
2024-04-21T00:20:26.964Z,80.49
2024-04-21T00:21:27.002Z,80.59
2024-04-21T00:22:26.883Z,80.69
2024-04-21T00:23:26.888Z,80.90
2024-04-21T00:24:26.878Z,80.80
2024-04-21T00:25:26.972Z,80.80
2024-04-21T00:26:26.839Z,80.69
2024-04-21T00:27:26.862Z,80.80
2024-04-21T00:28:26.926Z,80.59
2024-04-21T00:29:26.802Z,80.80
2024-04-21T00:30:26.868Z,80.90
2024-04-21T00:31:26.937Z,81.15
2024-04-21T00:32:26.904Z,81.25
2024-04-21T00:33:26.882Z,81.15
2024-04-21T00:34:26.875Z,81.35
2024-04-21T00:35:26.878Z,81.56
2024-04-21T00:36:26.767Z,81.46
2024-04-21T00:37:26.846Z,81.46
2024-04-21T00:38:26.795Z,81.35
2024-04-21T00:39:26.719Z,81.67
2024-04-21T00:40:26.799Z,81.67
2024-04-21T00:41:26.746Z,81.87
2024-04-21T00:42:26.762Z,81.87
2024-04-21T00:43:26.764Z,81.77
2024-04-21T00:44:26.670Z,81.98
2024-04-21T00:45:31.799Z,81.87
2024-04-21T00:46:27.684Z,81.98
2024-04-21T00:47:26.665Z,82.29
2024-04-21T00:48:26.665Z,82.08
2024-04-21T00:49:26.610Z,82.18
2024-04-21T00:50:26.619Z,82.39
2024-04-21T00:51:26.596Z,82.29
2024-04-21T00:52:26.552Z,82.12
2024-04-21T00:53:26.582Z,82.12
2024-04-21T00:54:26.590Z,82.32
2024-04-21T00:55:26.581Z,82.22
2024-04-21T00:56:26.587Z,82.22
2024-04-21T00:57:26.532Z,82.22
2024-04-21T00:58:26.542Z,82.12
2024-04-21T00:59:26.523Z,82.32
2024-04-21T01:00:26.497Z,82.32
2024-04-21T01:01:26.663Z,82.32
2024-04-21T01:02:26.532Z,82.43
2024-04-21T01:03:26.453Z,82.43
2024-04-21T01:04:26.490Z,82.43
2024-04-21T01:05:26.456Z,82.32
2024-04-21T01:06:26.541Z,82.43
2024-04-21T01:07:26.414Z,82.43
2024-04-21T01:08:26.457Z,82.43
2024-04-21T01:09:26.419Z,82.53
2024-04-21T01:10:26.483Z,82.64
2024-04-21T01:11:26.391Z,82.53
2024-04-21T01:12:26.353Z,82.43
2024-04-21T01:13:26.438Z,82.53
2024-04-21T01:14:26.385Z,82.32
2024-04-21T01:15:26.382Z,82.43
2024-04-21T01:16:26.409Z,82.53
2024-04-21T01:17:26.512Z,82.46
2024-04-21T01:18:26.334Z,82.36
2024-04-21T01:19:26.296Z,82.46
2024-04-21T01:20:26.283Z,82.46
2024-04-21T01:21:26.261Z,82.57
2024-04-21T01:22:26.329Z,82.46
2024-04-21T01:23:26.285Z,82.46
2024-04-21T01:24:26.245Z,82.57
2024-04-21T01:25:26.265Z,82.57
2024-04-21T01:26:26.222Z,82.57
2024-04-21T01:27:26.257Z,82.68
2024-04-21T01:28:26.376Z,82.57
2024-04-21T01:29:26.195Z,82.71
2024-04-21T01:30:26.287Z,82.82
2024-04-21T01:31:26.244Z,82.71
2024-04-21T01:32:26.210Z,82.92
2024-04-21T01:33:26.240Z,83.03
2024-04-21T01:34:26.120Z,82.71
2024-04-21T01:35:26.170Z,82.82
2024-04-21T01:36:26.103Z,82.82
2024-04-21T01:37:26.255Z,82.92
2024-04-21T01:38:26.102Z,82.82
2024-04-21T01:39:26.269Z,82.51
2024-04-21T01:40:26.111Z,82.71
2024-04-21T01:41:26.180Z,83.03
2024-04-21T01:42:26.064Z,82.92
2024-04-21T01:43:26.163Z,82.92
2024-04-21T01:44:26.078Z,82.71
2024-04-21T01:45:26.051Z,82.71
2024-04-21T01:46:26.028Z,82.61
2024-04-21T01:47:26.051Z,82.20
2024-04-21T01:48:25.996Z,82.40
2024-04-21T01:49:26.055Z,82.20
2024-04-21T01:50:25.951Z,82.40
2024-04-21T01:51:25.965Z,82.09
2024-04-21T01:52:26.114Z,82.09
2024-04-21T01:53:26.015Z,82.09
2024-04-21T01:54:25.932Z,81.88
2024-04-21T01:55:25.923Z,81.88
2024-04-21T01:56:25.956Z,81.67
2024-04-21T01:57:25.971Z,82.09
2024-04-21T01:58:25.892Z,82.40
2024-04-21T01:59:25.869Z,82.40
2024-04-21T02:00:25.882Z,82.09
2024-04-21T02:01:25.923Z,81.77
2024-04-21T02:02:25.962Z,81.88
2024-04-21T02:03:25.920Z,81.77
2024-04-21T02:04:25.889Z,82.09
2024-04-21T02:05:25.808Z,82.20
2024-04-21T02:06:25.832Z,82.30
2024-04-21T02:07:25.860Z,82.20
2024-04-21T02:08:25.776Z,82.20
2024-04-21T02:09:25.828Z,82.20
2024-04-21T02:10:25.825Z,82.09
2024-04-21T02:11:25.809Z,81.88
2024-04-21T02:12:25.754Z,81.67
2024-04-21T02:13:25.866Z,81.57
2024-04-21T02:14:25.719Z,81.67
2024-04-21T02:15:25.778Z,81.77
2024-04-21T02:16:25.716Z,81.67
2024-04-21T02:17:25.893Z,81.67
2024-04-21T02:18:25.690Z,81.67
2024-04-21T02:19:28.417Z,81.67
2024-04-21T02:20:25.708Z,81.67
2024-04-21T02:21:25.712Z,81.57
2024-04-21T02:22:25.663Z,81.60
2024-04-21T02:23:25.749Z,81.71
2024-04-21T02:24:25.670Z,81.19
2024-04-21T02:25:25.643Z,80.88
2024-04-21T02:26:25.627Z,80.77
2024-04-21T02:27:25.618Z,80.98
2024-04-21T02:28:25.625Z,81.09
2024-04-21T02:29:25.695Z,80.98
2024-04-21T02:30:26.614Z,81.19
2024-04-21T02:31:25.579Z,81.09
2024-04-21T02:32:25.583Z,80.67
2024-04-21T02:33:25.577Z,80.67
2024-04-21T02:34:25.618Z,80.46
2024-04-21T02:35:25.511Z,80.26
2024-04-21T02:36:25.489Z,80.46
2024-04-21T02:37:25.521Z,80.26
2024-04-21T02:38:25.510Z,80.36
2024-04-21T02:39:25.483Z,80.15
2024-04-21T02:40:25.587Z,80.05
2024-04-21T02:41:25.422Z,79.83
2024-04-21T02:42:25.434Z,79.94
2024-04-21T02:43:25.480Z,80.05
2024-04-21T02:44:25.444Z,79.73
2024-04-21T02:45:25.506Z,79.63
2024-04-21T02:46:25.497Z,79.83
2024-04-21T02:47:25.382Z,79.73
2024-04-21T02:48:25.403Z,79.73
2024-04-21T02:49:25.447Z,79.83
2024-04-21T02:50:25.335Z,79.73
2024-04-21T02:51:25.334Z,79.63
2024-04-21T02:52:25.391Z,79.63
2024-04-21T02:53:25.318Z,79.52
2024-04-21T02:54:25.296Z,79.73
2024-04-21T02:55:25.330Z,79.73
2024-04-21T02:56:25.316Z,79.42
2024-04-21T02:57:25.322Z,79.63
2024-04-21T02:58:25.290Z,79.52
2024-04-21T02:59:27.661Z,79.52
2024-04-21T03:00:25.239Z,79.63
2024-04-21T03:01:25.490Z,79.83
2024-04-21T03:02:25.270Z,79.94
2024-04-21T03:03:25.366Z,79.94
2024-04-21T03:04:25.284Z,79.87
2024-04-21T03:05:25.231Z,79.98
2024-04-21T03:06:25.216Z,79.98
2024-04-21T03:07:25.239Z,79.98
2024-04-21T03:08:25.165Z,80.08
2024-04-21T03:09:25.098Z,80.19
2024-04-21T03:10:25.154Z,80.19
2024-04-21T03:11:25.318Z,80.29
2024-04-21T03:12:25.270Z,80.40
2024-04-21T03:13:25.143Z,80.60
2024-04-21T03:14:25.056Z,80.50
2024-04-21T03:15:25.019Z,80.40
2024-04-21T03:16:25.086Z,80.40
2024-04-21T03:17:25.280Z,80.40
2024-04-21T03:18:25.045Z,80.40
2024-04-21T03:19:25.065Z,80.40
2024-04-21T03:20:24.995Z,80.40
2024-04-21T03:21:25.000Z,80.40
2024-04-21T03:22:25.108Z,80.40
2024-04-21T03:23:24.976Z,80.29
2024-04-21T03:24:24.926Z,80.60
2024-04-21T03:25:25.000Z,80.29
2024-04-21T03:26:25.012Z,80.29
2024-04-21T03:27:25.762Z,80.29
2024-04-21T03:28:25.024Z,80.40
2024-04-21T03:29:24.892Z,80.29
2024-04-21T03:30:24.892Z,80.40
2024-04-21T03:31:25.054Z,80.19
2024-04-21T03:32:24.897Z,80.29
2024-04-21T03:33:24.884Z,80.29
2024-04-21T03:34:24.893Z,80.19
2024-04-21T03:35:24.846Z,80.29
2024-04-21T03:36:24.852Z,80.50
2024-04-21T03:37:24.874Z,80.40
2024-04-21T03:38:24.806Z,80.19
2024-04-21T03:39:24.838Z,80.12
2024-04-21T03:40:24.909Z,80.33
2024-04-21T03:41:24.790Z,80.29
2024-04-21T03:42:24.791Z,80.19
2024-04-21T03:43:24.781Z,80.12
2024-04-21T03:44:24.766Z,80.22
2024-04-21T03:45:24.757Z,80.22
2024-04-21T03:46:25.195Z,80.43
2024-04-21T03:47:24.854Z,80.54
2024-04-21T03:48:24.698Z,80.54
2024-04-21T03:49:24.818Z,80.33
2024-04-21T03:50:25.707Z,80.43
2024-04-21T03:51:24.675Z,80.54
2024-04-21T03:52:24.754Z,80.54
2024-04-21T03:53:24.633Z,80.33
2024-04-21T03:54:24.630Z,80.22
2024-04-21T03:55:24.677Z,80.22
2024-04-21T03:56:24.699Z,80.33
2024-04-21T03:57:24.594Z,80.33
2024-04-21T03:58:24.667Z,80.43
2024-04-21T03:59:24.667Z,80.33
2024-04-21T04:00:24.592Z,80.33
2024-04-21T04:01:24.738Z,80.33
2024-04-21T04:02:24.594Z,80.43
2024-04-21T04:03:24.591Z,80.33
2024-04-21T04:04:24.603Z,80.22
2024-04-21T04:05:24.537Z,80.22
2024-04-21T04:06:24.654Z,79.91
2024-04-21T04:07:24.541Z,79.91
2024-04-21T04:08:24.488Z,80.02
2024-04-21T04:09:24.464Z,79.91
2024-04-21T04:10:24.546Z,80.02
2024-04-21T04:11:24.534Z,79.91
2024-04-21T04:12:24.438Z,80.12
2024-04-21T04:13:24.489Z,79.91
2024-04-21T04:14:24.466Z,80.02
2024-04-21T04:15:24.568Z,80.02
2024-04-21T04:16:24.522Z,80.22
2024-04-21T04:17:24.525Z,80.33
2024-04-21T04:18:24.428Z,79.91
2024-04-21T04:19:24.485Z,79.60
2024-04-21T04:20:24.380Z,79.60
2024-04-21T04:21:24.681Z,79.80
2024-04-21T04:22:24.414Z,79.60
2024-04-21T04:23:24.358Z,79.18
2024-04-21T04:24:24.319Z,79.08
2024-04-21T04:25:24.334Z,79.28
2024-04-21T04:26:24.425Z,79.08
2024-04-21T04:27:24.291Z,78.97
2024-04-21T04:28:24.288Z,78.56
2024-04-21T04:29:24.429Z,78.56
2024-04-21T04:30:24.303Z,78.66
2024-04-21T04:31:24.321Z,78.42
2024-04-21T04:32:24.251Z,78.31
2024-04-21T04:33:24.438Z,78.20
2024-04-21T04:34:24.283Z,78.24
2024-04-21T04:35:24.260Z,78.56
2024-04-21T04:36:24.219Z,78.56
2024-04-21T04:37:24.281Z,78.31
2024-04-21T04:38:24.162Z,78.20
2024-04-21T04:39:24.183Z,77.89
2024-04-21T04:40:24.276Z,78.00
2024-04-21T04:41:24.173Z,77.89
2024-04-21T04:42:24.247Z,78.10
2024-04-21T04:43:24.270Z,77.89
2024-04-21T04:44:24.120Z,77.58
2024-04-21T04:45:24.107Z,77.58
2024-04-21T04:46:24.113Z,77.79
2024-04-21T04:47:24.198Z,77.79
2024-04-21T04:48:24.074Z,77.69
2024-04-21T04:49:24.153Z,77.79
2024-04-21T04:50:24.057Z,77.69
2024-04-21T04:51:24.077Z,77.69
2024-04-21T04:52:24.078Z,77.37
2024-04-21T04:53:24.137Z,77.27
2024-04-21T04:54:24.052Z,77.23
2024-04-21T04:55:24.020Z,77.23
2024-04-21T04:56:24.079Z,77.13
2024-04-21T04:57:23.988Z,76.99
2024-04-21T04:58:24.018Z,76.23
2024-04-21T04:59:23.988Z,75.05
2024-04-21T05:00:23.973Z,73.97
2024-04-21T05:01:24.031Z,73.08
2024-04-21T05:02:23.942Z,71.91
2024-04-21T05:03:23.979Z,71.34
2024-04-21T05:04:23.972Z,72.42
2024-04-21T05:05:24.034Z,73.35
2024-04-21T05:06:23.967Z,73.60
2024-04-21T05:07:24.057Z,74.35
2024-04-21T05:08:23.864Z,74.67
2024-04-21T05:09:23.891Z,74.80
2024-04-21T05:10:23.964Z,75.22
2024-04-21T05:11:23.903Z,75.54
2024-04-21T05:12:23.904Z,75.43
2024-04-21T05:13:23.916Z,75.43
2024-04-21T05:14:23.854Z,75.43
2024-04-21T05:15:23.787Z,75.54
2024-04-21T05:16:23.880Z,75.22
2024-04-21T05:17:23.941Z,75.32
2024-04-21T05:18:23.831Z,75.22
2024-04-21T05:19:23.788Z,75.60
2024-04-21T05:20:23.747Z,75.09
2024-04-21T05:21:23.738Z,74.53
2024-04-21T05:22:23.768Z,74.22
2024-04-21T05:23:23.729Z,74.01
2024-04-21T05:24:23.758Z,73.60
2024-04-21T05:25:23.785Z,73.46
2024-04-21T05:26:23.724Z,73.25
2024-04-21T05:27:23.683Z,72.59
2024-04-21T05:28:36.439Z,72.49
2024-04-21T05:29:24.702Z,71.25
2024-04-21T05:30:23.729Z,68.18
2024-04-21T05:31:23.794Z,68.96
2024-04-21T05:32:23.694Z,69.62
2024-04-21T05:33:23.664Z,70.20
2024-04-21T05:34:23.684Z,71.48
2024-04-21T05:35:23.640Z,71.90
2024-04-21T05:36:23.623Z,72.11
2024-04-21T05:37:23.639Z,72.21
2024-04-21T05:38:23.552Z,72.11
2024-04-21T05:39:23.625Z,72.21
2024-04-21T05:40:23.573Z,72.42
2024-04-21T05:41:23.537Z,72.17
2024-04-21T05:42:23.524Z,71.86
2024-04-21T05:43:23.578Z,71.42
2024-04-21T05:44:23.534Z,70.48
2024-04-21T05:45:23.503Z,69.96
2024-04-21T05:46:23.523Z,69.93
2024-04-21T05:47:23.567Z,69.21
2024-04-21T05:48:23.440Z,69.62
2024-04-21T05:49:23.531Z,69.27
2024-04-21T05:50:23.430Z,68.25
2024-04-21T05:51:23.436Z,65.47
2024-04-21T05:52:23.493Z,62.97
2024-04-21T05:53:23.415Z,60.44
2024-04-21T05:54:23.398Z,59.61
2024-04-21T05:55:23.391Z,59.51
2024-04-21T05:56:23.366Z,59.28
2024-04-21T05:57:23.395Z,58.42
2024-04-21T05:58:23.385Z,57.98
2024-04-21T05:59:23.952Z,58.14
2024-04-21T06:00:23.369Z,56.77
2024-04-21T06:01:23.366Z,56.28
2024-04-21T06:02:23.346Z,54.05
2024-04-21T06:03:23.361Z,52.28
2024-04-21T06:04:23.365Z,51.92
2024-04-21T06:05:23.299Z,53.38
2024-04-21T06:06:23.438Z,53.61
2024-04-21T06:07:23.368Z,53.87
2024-04-21T06:08:23.287Z,54.38
2024-04-21T06:09:23.227Z,53.28
2024-04-21T06:10:23.380Z,54.64
2024-04-21T06:11:23.254Z,55.23
2024-04-21T06:12:23.224Z,55.43
2024-04-21T06:13:23.262Z,54.51
2024-04-21T06:14:23.200Z,55.38
2024-04-21T06:15:23.216Z,53.38
2024-04-21T06:16:23.229Z,52.10
2024-04-21T06:17:23.519Z,51.95
2024-04-21T06:18:23.209Z,52.79
2024-04-21T06:19:23.194Z,53.20
2024-04-21T06:20:23.142Z,52.86
2024-04-21T06:21:23.143Z,53.28
2024-04-21T06:22:23.114Z,53.69
2024-04-21T06:23:23.082Z,53.33
2024-04-21T06:24:23.133Z,54.79
2024-04-21T06:25:23.250Z,54.66
2024-04-21T06:26:23.040Z,54.87
2024-04-21T06:27:23.087Z,54.00
2024-04-21T06:28:23.188Z,52.84
2024-04-21T06:29:23.029Z,52.33
2024-04-21T06:30:23.155Z,52.51
2024-04-21T06:31:23.125Z,52.66
2024-04-21T06:32:23.167Z,53.28
2024-04-21T06:33:23.002Z,52.97
2024-04-21T06:34:23.022Z,52.86
2024-04-21T06:35:22.971Z,52.81
2024-04-21T06:36:22.969Z,51.72
2024-04-21T06:37:23.079Z,50.20
2024-04-21T06:38:22.955Z,50.94
2024-04-21T06:39:22.985Z,51.20
2024-04-21T06:40:23.025Z,52.14
2024-04-21T06:41:22.904Z,52.27
2024-04-21T06:42:22.925Z,52.86
2024-04-21T06:43:22.924Z,52.86
2024-04-21T06:44:22.886Z,52.53
2024-04-21T06:45:22.867Z,52.84
2024-04-21T06:46:22.966Z,52.20
2024-04-21T06:47:25.040Z,51.35
2024-04-21T06:48:22.821Z,51.28
2024-04-21T06:49:22.824Z,51.07
2024-04-21T06:50:22.793Z,52.01
2024-04-21T06:51:22.933Z,53.33
2024-04-21T06:52:22.932Z,54.33
2024-04-21T06:53:22.807Z,55.62
2024-04-21T06:54:22.849Z,56.90
2024-04-21T06:55:23.120Z,57.48
2024-04-21T06:56:22.731Z,58.02
2024-04-21T06:57:22.736Z,58.56
2024-04-21T06:58:22.798Z,59.08
2024-04-21T06:59:22.723Z,59.29
2024-04-21T07:00:22.831Z,59.19
2024-04-21T07:01:22.798Z,58.87
2024-04-21T07:02:22.748Z,59.19
2024-04-21T07:03:22.823Z,59.29
2024-04-21T07:04:23.679Z,58.54
2024-04-21T07:05:22.705Z,58.54
2024-04-21T07:06:22.971Z,58.74
2024-04-21T07:07:22.665Z,58.44
2024-04-21T07:08:22.693Z,58.54
2024-04-21T07:09:22.701Z,58.36
2024-04-21T07:10:22.761Z,58.56
2024-04-21T07:11:22.592Z,58.84
2024-04-21T07:12:22.551Z,58.44
2024-04-21T07:13:22.652Z,58.33
2024-04-21T07:14:22.538Z,57.92
2024-04-21T07:15:22.576Z,57.81
2024-04-21T07:16:22.703Z,58.02
2024-04-21T07:17:22.523Z,57.58
2024-04-21T07:18:22.647Z,57.17
2024-04-21T07:19:22.570Z,57.37
2024-04-21T07:20:23.006Z,57.37
2024-04-21T07:21:22.792Z,57.14
2024-04-21T07:22:22.537Z,56.73
2024-04-21T07:23:22.449Z,56.73
2024-04-21T07:24:22.417Z,56.52
2024-04-21T07:25:25.470Z,56.41
2024-04-21T07:26:22.407Z,56.31
2024-04-21T07:27:22.428Z,56.24
2024-04-21T07:28:26.323Z,56.44
2024-04-21T07:29:22.409Z,56.54
2024-04-21T07:30:22.419Z,56.75
2024-04-21T07:31:22.428Z,57.27
2024-04-21T07:32:22.403Z,57.55
2024-04-21T07:33:22.356Z,57.45
2024-04-21T07:34:22.416Z,56.62
2024-04-21T07:35:22.390Z,57.24
2024-04-21T07:36:22.339Z,57.24
2024-04-21T07:37:22.441Z,57.11
2024-04-21T07:38:22.321Z,56.83
2024-04-21T07:39:22.283Z,57.42
2024-04-21T07:40:22.296Z,57.42
2024-04-21T07:41:22.297Z,56.46
2024-04-21T07:42:22.256Z,55.64
2024-04-21T07:43:22.312Z,55.33
2024-04-21T07:44:22.233Z,55.43
2024-04-21T07:45:22.583Z,54.82
2024-04-21T07:46:22.246Z,55.13
2024-04-21T07:47:22.245Z,55.43
2024-04-21T07:48:22.337Z,54.82
2024-04-21T07:49:22.209Z,55.41
2024-04-21T07:50:22.137Z,55.43
2024-04-21T07:51:22.311Z,54.30
2024-04-21T07:52:22.253Z,54.38
2024-04-21T07:53:22.115Z,54.06
2024-04-21T07:54:22.165Z,53.86
2024-04-21T07:55:22.131Z,53.76
2024-04-21T07:56:22.180Z,53.96
2024-04-21T07:57:22.097Z,53.89
2024-04-21T07:58:22.159Z,53.58
2024-04-21T07:59:22.093Z,54.19
2024-04-21T08:00:22.039Z,54.48
2024-04-21T08:01:22.256Z,54.38
2024-04-21T08:02:22.338Z,54.48
2024-04-21T08:03:22.065Z,54.58
2024-04-21T08:04:22.059Z,54.90
2024-04-21T08:05:22.034Z,54.48
2024-04-21T08:06:22.015Z,54.48
2024-04-21T08:07:22.084Z,54.56
2024-04-21T08:08:21.968Z,54.86
2024-04-21T08:09:30.084Z,54.86
2024-04-21T08:10:26.927Z,54.22
2024-04-21T08:11:22.125Z,53.71
2024-04-21T08:12:21.935Z,53.71
2024-04-21T08:13:21.959Z,53.81
2024-04-21T08:14:22.010Z,53.40
2024-04-21T08:15:21.926Z,53.50
2024-04-21T08:16:22.124Z,53.61
2024-04-21T08:17:21.951Z,53.30
2024-04-21T08:18:22.041Z,53.50
2024-04-21T08:19:22.012Z,53.30
2024-04-21T08:20:21.881Z,53.09
2024-04-21T08:21:21.852Z,53.61
2024-04-21T08:22:22.576Z,53.09
2024-04-21T08:23:21.914Z,52.86
2024-04-21T08:24:21.830Z,52.78
2024-04-21T08:25:21.804Z,52.76
2024-04-21T08:26:24.448Z,52.24
2024-04-21T08:27:21.854Z,52.03
2024-04-21T08:28:21.842Z,52.16
2024-04-21T08:29:21.747Z,52.39
2024-04-21T08:30:21.872Z,53.09
2024-04-21T08:31:21.833Z,53.40
2024-04-21T08:32:21.857Z,53.06
2024-04-21T08:33:21.741Z,52.96
2024-04-21T08:34:21.918Z,52.34
2024-04-21T08:35:21.694Z,52.03
2024-04-21T08:36:22.074Z,52.34
2024-04-21T08:37:24.750Z,52.86
2024-04-21T08:38:21.644Z,52.86
2024-04-21T08:39:21.708Z,52.34
2024-04-21T08:40:21.728Z,52.45
2024-04-21T08:41:21.728Z,52.83
2024-04-21T08:42:21.681Z,52.40
2024-04-21T08:43:21.826Z,51.96
2024-04-21T08:44:21.666Z,50.93
2024-04-21T08:45:21.675Z,51.34
2024-04-21T08:46:21.793Z,51.24
2024-04-21T08:47:21.775Z,51.14
2024-04-21T08:48:21.714Z,51.76
2024-04-21T08:49:21.686Z,51.55
2024-04-21T08:50:21.579Z,51.06
2024-04-21T08:51:21.652Z,51.09
2024-04-21T08:52:21.500Z,51.60
2024-04-21T08:53:21.756Z,52.73
2024-04-21T08:54:21.473Z,52.29
2024-04-21T08:55:21.588Z,52.29
2024-04-21T08:56:21.522Z,52.61
2024-04-21T08:57:21.517Z,52.17
2024-04-21T08:58:21.544Z,51.76
2024-04-21T08:59:21.436Z,51.94
2024-04-21T09:00:21.472Z,51.63
2024-04-21T09:01:22.161Z,50.99
2024-04-21T09:02:21.439Z,51.30
2024-04-21T09:03:21.420Z,51.09
2024-04-21T09:04:21.514Z,50.99
2024-04-21T09:05:21.522Z,51.09
2024-04-21T09:06:21.341Z,50.68
2024-04-21T09:07:21.378Z,50.66
2024-04-21T09:08:21.324Z,50.76
2024-04-21T09:09:21.330Z,50.53
2024-04-21T09:10:21.345Z,50.86
2024-04-21T09:11:21.328Z,51.20
2024-04-21T09:12:21.298Z,50.16
2024-04-21T09:13:21.381Z,50.50
2024-04-21T09:14:21.326Z,50.40
2024-04-21T09:15:21.245Z,50.60
2024-04-21T09:16:21.242Z,51.12
2024-04-21T09:17:21.374Z,51.01
2024-04-21T09:18:21.309Z,50.58
2024-04-21T09:19:21.276Z,50.48
2024-04-21T09:20:21.235Z,50.16
2024-04-21T09:21:25.520Z,49.86
2024-04-21T09:22:21.274Z,49.65
2024-04-21T09:23:21.302Z,50.29
2024-04-21T09:24:21.173Z,50.40
2024-04-21T09:25:21.264Z,50.29
2024-04-21T09:26:22.736Z,50.81
2024-04-21T09:27:21.137Z,50.99
2024-04-21T09:28:21.219Z,51.63
2024-04-21T09:29:21.135Z,51.53
2024-04-21T09:30:21.201Z,52.04
2024-04-21T09:31:21.185Z,51.63
2024-04-21T09:32:21.142Z,51.61
2024-04-21T09:33:21.155Z,50.68
2024-04-21T09:34:21.134Z,50.78
2024-04-21T09:35:21.047Z,50.16
2024-04-21T09:36:21.080Z,50.58
2024-04-21T09:37:21.089Z,50.68
2024-04-21T09:38:21.050Z,51.37
2024-04-21T09:39:21.012Z,50.63
2024-04-21T09:40:21.046Z,50.82
2024-04-21T09:41:21.052Z,49.79
2024-04-21T09:42:20.961Z,49.79
2024-04-21T09:43:21.003Z,49.66
2024-04-21T09:44:21.003Z,49.99
2024-04-21T09:45:20.966Z,50.20
2024-04-21T09:46:21.096Z,49.77
2024-04-21T09:47:21.039Z,49.97
2024-04-21T09:48:20.962Z,49.54
2024-04-21T09:49:21.088Z,49.51
2024-04-21T09:50:20.939Z,49.39
2024-04-21T09:51:21.026Z,48.77
2024-04-21T09:52:20.977Z,48.88
2024-04-21T09:53:21.594Z,49.18
2024-04-21T09:54:20.857Z,49.49
2024-04-21T09:55:20.850Z,49.49
2024-04-21T09:56:21.009Z,49.10
2024-04-21T09:57:20.808Z,49.87
2024-04-21T09:58:21.524Z,51.10
2024-04-21T09:59:20.782Z,50.67
2024-04-21T10:00:20.817Z,50.67
2024-04-21T10:01:20.870Z,50.05
2024-04-21T10:02:20.804Z,50.59
2024-04-21T10:03:20.821Z,50.79
2024-04-21T10:04:20.907Z,50.87
2024-04-21T10:05:20.868Z,50.46
2024-04-21T10:06:20.724Z,50.36
2024-04-21T10:07:20.728Z,50.07
2024-04-21T10:08:22.671Z,50.40
2024-04-21T10:09:20.767Z,51.12
2024-04-21T10:10:20.757Z,51.25
2024-04-21T10:11:20.689Z,51.68
2024-04-21T10:12:20.671Z,52.09
2024-04-21T10:13:20.697Z,52.51
2024-04-21T10:14:20.622Z,52.40
2024-04-21T10:15:20.667Z,52.94
2024-04-21T10:16:20.675Z,52.94
2024-04-21T10:17:20.696Z,53.15
2024-04-21T10:18:20.600Z,53.35
2024-04-21T10:19:20.618Z,53.35
2024-04-21T10:20:20.599Z,53.45
2024-04-21T10:21:20.569Z,53.35
2024-04-21T10:22:20.547Z,53.25
2024-04-21T10:23:20.537Z,53.77
2024-04-21T10:24:20.592Z,53.77
2024-04-21T10:25:20.536Z,53.66
2024-04-21T10:26:20.534Z,53.64
2024-04-21T10:27:20.492Z,52.79
2024-04-21T10:28:20.558Z,52.04
2024-04-21T10:29:20.459Z,51.95
2024-04-21T10:30:20.456Z,52.07
2024-04-21T10:31:20.501Z,52.28
2024-04-21T10:32:20.492Z,52.17
2024-04-21T10:33:20.527Z,52.15
2024-04-21T10:34:20.421Z,51.74
2024-04-21T10:35:20.446Z,51.84
2024-04-21T10:36:20.418Z,52.07
2024-04-21T10:37:20.433Z,51.84
2024-04-21T10:38:20.367Z,51.74
2024-04-21T10:39:20.392Z,51.53
2024-04-21T10:40:20.502Z,51.74
2024-04-21T10:41:20.338Z,51.95
2024-04-21T10:42:20.380Z,51.97
2024-04-21T10:43:20.459Z,51.87
2024-04-21T10:44:20.377Z,51.99
2024-04-21T10:45:20.402Z,52.81
2024-04-21T10:46:20.346Z,52.81
2024-04-21T10:47:20.395Z,52.12
2024-04-21T10:48:20.461Z,52.73
2024-04-21T10:49:20.551Z,52.61
2024-04-21T10:50:20.222Z,52.38
2024-04-21T10:51:20.218Z,51.74
2024-04-21T10:52:20.365Z,51.33
2024-04-21T10:53:20.192Z,51.20
2024-04-21T10:54:20.226Z,51.10
2024-04-21T10:55:20.372Z,51.10
2024-04-21T10:56:20.169Z,51.23
2024-04-21T10:57:20.602Z,51.41
2024-04-21T10:58:20.184Z,51.51
2024-04-21T10:59:20.165Z,51.10
2024-04-21T11:00:20.115Z,51.10
2024-04-21T11:01:20.204Z,50.99
2024-04-21T11:02:20.238Z,51.10
2024-04-21T11:03:20.209Z,50.28
2024-04-21T11:04:20.153Z,50.30
2024-04-21T11:05:20.118Z,50.92
2024-04-21T11:06:20.074Z,51.23
2024-04-21T11:07:20.116Z,51.43
2024-04-21T11:08:20.068Z,51.43
2024-04-21T11:09:20.071Z,51.84
2024-04-21T11:10:20.122Z,52.04
2024-04-21T11:11:20.062Z,52.25
2024-04-21T11:12:19.994Z,52.36
2024-04-21T11:13:20.038Z,52.66
2024-04-21T11:14:23.968Z,52.97
2024-04-21T11:15:19.941Z,53.17
2024-04-21T11:16:19.998Z,53.05
2024-04-21T11:17:20.069Z,52.84
2024-04-21T11:18:20.039Z,53.25
2024-04-21T11:19:19.978Z,52.51
2024-04-21T11:20:19.925Z,52.59
2024-04-21T11:21:19.894Z,51.69
2024-04-21T11:22:19.940Z,51.26
2024-04-21T11:23:19.937Z,51.64
2024-04-21T11:24:19.912Z,51.10
2024-04-21T11:25:19.911Z,50.26
2024-04-21T11:26:19.857Z,49.96
2024-04-21T11:27:19.873Z,49.75
2024-04-21T11:28:20.091Z,49.14
2024-04-21T11:29:19.879Z,49.24
2024-04-21T11:30:19.812Z,49.29
2024-04-21T11:31:19.823Z,49.39
2024-04-21T11:32:19.866Z,50.23
2024-04-21T11:33:19.937Z,50.42
2024-04-21T11:34:19.841Z,50.34
2024-04-21T11:35:19.819Z,50.56
2024-04-21T11:36:19.836Z,51.10
2024-04-21T11:37:19.876Z,51.31
2024-04-21T11:38:19.700Z,51.74
2024-04-21T11:39:19.679Z,51.95
2024-04-21T11:40:19.743Z,52.36
2024-04-21T11:41:19.685Z,53.15
2024-04-21T11:42:19.676Z,51.15
2024-04-21T11:43:21.946Z,50.46
2024-04-21T11:44:19.646Z,50.74
2024-04-21T11:45:19.630Z,50.10
2024-04-21T11:46:19.621Z,49.44
2024-04-21T11:47:19.760Z,48.91
2024-04-21T11:48:19.680Z,48.01
2024-04-21T11:49:19.597Z,47.38
2024-04-21T11:50:19.570Z,47.15
2024-04-21T11:51:19.594Z,46.31
2024-04-21T11:52:19.626Z,45.70
2024-04-21T11:53:19.562Z,44.88
2024-04-21T11:54:19.528Z,45.20
2024-04-21T11:55:19.613Z,46.35
2024-04-21T11:56:19.507Z,46.99
2024-04-21T11:57:19.660Z,47.71
2024-04-21T11:58:19.499Z,47.71
2024-04-21T11:59:19.476Z,48.06
2024-04-21T12:00:20.145Z,48.69
2024-04-21T12:01:25.119Z,49.02
2024-04-21T12:02:20.565Z,49.41
2024-04-21T12:03:19.568Z,49.18
2024-04-21T12:04:19.557Z,48.73
2024-04-21T12:05:19.417Z,48.19
2024-04-21T12:06:19.450Z,47.97
2024-04-21T12:07:19.455Z,47.68
2024-04-21T12:08:19.430Z,47.71
2024-04-21T12:09:19.423Z,48.75
2024-04-21T12:10:19.432Z,49.29
2024-04-21T12:11:19.389Z,49.82
2024-04-21T12:12:19.363Z,50.34
2024-04-21T12:13:19.525Z,50.85
2024-04-21T12:14:19.550Z,50.93
2024-04-21T12:15:19.311Z,50.72
2024-04-21T12:16:19.439Z,50.67
2024-04-21T12:17:19.483Z,51.15
2024-04-21T12:18:19.989Z,51.07
2024-04-21T12:19:19.336Z,51.48
2024-04-21T12:20:25.059Z,51.46
2024-04-21T12:21:20.367Z,51.44
2024-04-21T12:22:19.263Z,51.31
2024-04-21T12:23:19.295Z,51.10
2024-04-21T12:24:19.223Z,50.37
2024-04-21T12:25:19.251Z,50.37
2024-04-21T12:26:19.182Z,49.96
2024-04-21T12:27:19.230Z,50.26
2024-04-21T12:28:19.185Z,49.93
2024-04-21T12:29:19.174Z,49.65
2024-04-21T12:30:19.151Z,49.55
2024-04-21T12:31:19.373Z,49.73
2024-04-21T12:32:19.233Z,48.40
2024-04-21T12:33:19.184Z,48.40
2024-04-21T12:34:19.153Z,48.40
2024-04-21T12:35:19.112Z,48.83
2024-04-21T12:36:19.130Z,48.93
2024-04-21T12:37:19.102Z,48.93
2024-04-21T12:38:19.060Z,49.22
2024-04-21T12:39:19.089Z,48.99
2024-04-21T12:40:19.186Z,48.71
2024-04-21T12:41:19.213Z,47.99
2024-04-21T12:42:19.030Z,48.19
2024-04-21T12:43:19.067Z,48.19
2024-04-21T12:44:19.026Z,47.97
2024-04-21T12:45:19.048Z,47.56
2024-04-21T12:46:19.068Z,47.86
2024-04-21T12:47:19.044Z,48.17
2024-04-21T12:48:18.985Z,48.27
2024-04-21T12:49:19.098Z,48.27
2024-04-21T12:50:18.984Z,48.79
2024-04-21T12:51:18.984Z,48.71
2024-04-21T12:52:19.020Z,49.04